sensor_id;sensor_type;location;lat;lon;timestamp;temperature;humidity
16781;DHT22;8507;50.056;8.248;2023-03-23T00:01:48;13.90;99.90
16781;DHT22;8507;50.056;8.248;2023-03-23T00:04:17;13.90;99.90
16781;DHT22;8507;50.056;8.248;2023-03-23T00:06:43;14.00;99.90
16781;DHT22;8507;50.056;8.248;2023-03-23T00:09:12;14.00;99.90
16781;DHT22;8507;50.056;8.248;2023-03-23T00:11:37;14.00;99.90
16781;DHT22;8507;50.056;8.248;2023-03-23T00:14:04;14.00;99.90
16781;DHT22;8507;50.056;8.248;2023-03-23T00:16:32;14.00;99.90
16781;DHT22;8507;50.056;8.248;2023-03-23T00:19:07;14.00;99.90
16781;DHT22;8507;50.056;8.248;2023-03-23T00:21:35;13.90;99.90
16781;DHT22;8507;50.056;8.248;2023-03-23T00:24:13;13.90;99.90
16781;DHT22;8507;50.056;8.248;2023-03-23T00:26:41;14.00;99.90
16781;DHT22;8507;50.056;8.248;2023-03-23T00:29:21;14.00;99.90
16781;DHT22;8507;50.056;8.248;2023-03-23T00:31:48;14.00;99.90
16781;DHT22;8507;50.056;8.248;2023-03-23T00:34:19;14.00;99.90
16781;DHT22;8507;50.056;8.248;2023-03-23T00:36:50;14.00;99.90
16781;DHT22;8507;50.056;8.248;2023-03-23T00:39:16;14.00;99.90
16781;DHT22;8507;50.056;8.248;2023-03-23T00:41:43;14.00;99.90
16781;DHT22;8507;50.056;8.248;2023-03-23T00:44:09;14.00;99.90
16781;DHT22;8507;50.056;8.248;2023-03-23T00:46:34;14.00;99.90
16781;DHT22;8507;50.056;8.248;2023-03-23T00:49:17;13.90;99.90
16781;DHT22;8507;50.056;8.248;2023-03-23T00:51:43;13.80;99.90
16781;DHT22;8507;50.056;8.248;2023-03-23T00:54:10;13.80;99.90
16781;DHT22;8507;50.056;8.248;2023-03-23T00:56:36;13.90;99.90
16781;DHT22;8507;50.056;8.248;2023-03-23T00:59:02;13.80;99.90
16781;DHT22;8507;50.056;8.248;2023-03-23T01:01:27;13.80;99.90
16781;DHT22;8507;50.056;8.248;2023-03-23T01:03:53;13.70;99.90
16781;DHT22;8507;50.056;8.248;2023-03-23T01:06:27;13.80;99.90
16781;DHT22;8507;50.056;8.248;2023-03-23T01:08:53;13.80;99.90
16781;DHT22;8507;50.056;8.248;2023-03-23T01:11:19;13.80;99.90
16781;DHT22;8507;50.056;8.248;2023-03-23T01:13:45;13.80;99.90
16781;DHT22;8507;50.056;8.248;2023-03-23T01:16:11;13.80;99.90
16781;DHT22;8507;50.056;8.248;2023-03-23T01:18:38;13.70;99.90
16781;DHT22;8507;50.056;8.248;2023-03-23T01:21:05;13.80;99.90
16781;DHT22;8507;50.056;8.248;2023-03-23T01:23:33;13.70;99.90
16781;DHT22;8507;50.056;8.248;2023-03-23T01:26:06;13.70;99.90
16781;DHT22;8507;50.056;8.248;2023-03-23T01:28:36;13.70;99.90
16781;DHT22;8507;50.056;8.248;2023-03-23T01:31:03;13.60;99.90
16781;DHT22;8507;50.056;8.248;2023-03-23T01:33:29;13.50;99.90
16781;DHT22;8507;50.056;8.248;2023-03-23T01:35:56;13.50;99.90
16781;DHT22;8507;50.056;8.248;2023-03-23T01:38:21;13.40;99.90
16781;DHT22;8507;50.056;8.248;2023-03-23T01:40:47;13.30;99.90
16781;DHT22;8507;50.056;8.248;2023-03-23T01:43:13;13.10;99.90
16781;DHT22;8507;50.056;8.248;2023-03-23T01:45:40;13.00;99.90
16781;DHT22;8507;50.056;8.248;2023-03-23T01:48:22;13.10;99.90
16781;DHT22;8507;50.056;8.248;2023-03-23T01:50:54;13.00;99.90
16781;DHT22;8507;50.056;8.248;2023-03-23T01:53:22;13.10;99.90
16781;DHT22;8507;50.056;8.248;2023-03-23T01:55:51;13.00;99.90
16781;DHT22;8507;50.056;8.248;2023-03-23T01:58:21;13.00;99.90
16781;DHT22;8507;50.056;8.248;2023-03-23T02:00:51;13.10;99.90
16781;DHT22;8507;50.056;8.248;2023-03-23T02:03:20;13.20;99.90
16781;DHT22;8507;50.056;8.248;2023-03-23T02:05:48;13.20;99.90
16781;DHT22;8507;50.056;8.248;2023-03-23T02:08:14;13.30;99.90
16781;DHT22;8507;50.056;8.248;2023-03-23T02:10:41;13.30;99.90
16781;DHT22;8507;50.056;8.248;2023-03-23T02:13:08;13.30;99.90
16781;DHT22;8507;50.056;8.248;2023-03-23T02:21:16;13.50;99.90
16781;DHT22;8507;50.056;8.248;2023-03-23T02:23:49;13.70;99.90
16781;DHT22;8507;50.056;8.248;2023-03-23T02:26:28;13.60;99.90
16781;DHT22;8507;50.056;8.248;2023-03-23T02:29:29;13.70;99.90
16781;DHT22;8507;50.056;8.248;2023-03-23T02:35:08;13.80;99.90
16781;DHT22;8507;50.056;8.248;2023-03-23T02:37:44;13.80;99.90
16781;DHT22;8507;50.056;8.248;2023-03-23T02:40:17;13.70;99.90
16781;DHT22;8507;50.056;8.248;2023-03-23T02:42:47;13.70;99.90
16781;DHT22;8507;50.056;8.248;2023-03-23T02:45:15;13.70;99.90
16781;DHT22;8507;50.056;8.248;2023-03-23T02:47:41;13.70;99.90
16781;DHT22;8507;50.056;8.248;2023-03-23T02:50:10;13.60;99.90
16781;DHT22;8507;50.056;8.248;2023-03-23T02:52:37;13.60;99.90
16781;DHT22;8507;50.056;8.248;2023-03-23T02:55:05;13.60;99.90
16781;DHT22;8507;50.056;8.248;2023-03-23T02:57:31;13.60;99.90
16781;DHT22;8507;50.056;8.248;2023-03-23T02:59:57;13.60;99.90
16781;DHT22;8507;50.056;8.248;2023-03-23T03:02:31;13.60;99.90
16781;DHT22;8507;50.056;8.248;2023-03-23T03:05:12;13.60;99.90
16781;DHT22;8507;50.056;8.248;2023-03-23T03:10:27;13.60;99.90
16781;DHT22;8507;50.056;8.248;2023-03-23T03:18:44;13.50;99.90
16781;DHT22;8507;50.056;8.248;2023-03-23T03:21:14;13.40;99.90
16781;DHT22;8507;50.056;8.248;2023-03-23T03:23:43;13.50;99.90
16781;DHT22;8507;50.056;8.248;2023-03-23T03:26:13;13.40;99.90
16781;DHT22;8507;50.056;8.248;2023-03-23T03:28:45;13.40;99.90
16781;DHT22;8507;50.056;8.248;2023-03-23T03:31:15;13.40;99.90
16781;DHT22;8507;50.056;8.248;2023-03-23T03:33:42;13.40;99.90
16781;DHT22;8507;50.056;8.248;2023-03-23T03:36:15;13.40;99.90
16781;DHT22;8507;50.056;8.248;2023-03-23T03:38:44;13.50;99.90
16781;DHT22;8507;50.056;8.248;2023-03-23T03:41:10;13.50;99.90
16781;DHT22;8507;50.056;8.248;2023-03-23T03:43:35;13.50;99.90
16781;DHT22;8507;50.056;8.248;2023-03-23T03:46:01;13.50;99.90
16781;DHT22;8507;50.056;8.248;2023-03-23T03:48:27;13.50;99.90
16781;DHT22;8507;50.056;8.248;2023-03-23T03:50:52;13.50;99.90
16781;DHT22;8507;50.056;8.248;2023-03-23T03:53:22;13.50;99.90
16781;DHT22;8507;50.056;8.248;2023-03-23T03:55:47;13.50;99.90
16781;DHT22;8507;50.056;8.248;2023-03-23T03:58:15;13.50;99.90
16781;DHT22;8507;50.056;8.248;2023-03-23T04:00:41;13.60;99.90
16781;DHT22;8507;50.056;8.248;2023-03-23T04:03:07;13.60;99.90
16781;DHT22;8507;50.056;8.248;2023-03-23T04:05:34;13.60;99.90
16781;DHT22;8507;50.056;8.248;2023-03-23T04:07:59;13.60;99.90
16781;DHT22;8507;50.056;8.248;2023-03-23T04:10:28;13.60;99.90
16781;DHT22;8507;50.056;8.248;2023-03-23T04:12:54;13.70;99.90
16781;DHT22;8507;50.056;8.248;2023-03-23T04:15:21;13.60;99.90
16781;DHT22;8507;50.056;8.248;2023-03-23T04:17:46;13.60;99.90
16781;DHT22;8507;50.056;8.248;2023-03-23T04:20:13;13.70;99.90
16781;DHT22;8507;50.056;8.248;2023-03-23T04:22:45;13.70;99.90
16781;DHT22;8507;50.056;8.248;2023-03-23T04:25:15;13.70;99.90
16781;DHT22;8507;50.056;8.248;2023-03-23T04:27:41;13.70;99.90
16781;DHT22;8507;50.056;8.248;2023-03-23T04:30:12;13.70;99.90
16781;DHT22;8507;50.056;8.248;2023-03-23T04:32:38;13.70;99.90
16781;DHT22;8507;50.056;8.248;2023-03-23T04:35:09;13.80;99.90
16781;DHT22;8507;50.056;8.248;2023-03-23T04:37:36;13.80;99.90
16781;DHT22;8507;50.056;8.248;2023-03-23T04:40:02;13.80;99.90
16781;DHT22;8507;50.056;8.248;2023-03-23T04:42:38;13.80;99.90
16781;DHT22;8507;50.056;8.248;2023-03-23T04:45:06;13.80;99.90
16781;DHT22;8507;50.056;8.248;2023-03-23T04:47:35;13.70;99.90
16781;DHT22;8507;50.056;8.248;2023-03-23T04:50:09;13.70;99.90
16781;DHT22;8507;50.056;8.248;2023-03-23T04:52:36;13.70;99.90
16781;DHT22;8507;50.056;8.248;2023-03-23T04:55:04;13.70;99.90
16781;DHT22;8507;50.056;8.248;2023-03-23T04:57:30;13.70;99.90
16781;DHT22;8507;50.056;8.248;2023-03-23T04:59:56;13.70;99.90
16781;DHT22;8507;50.056;8.248;2023-03-23T05:02:21;13.60;99.90
16781;DHT22;8507;50.056;8.248;2023-03-23T05:04:47;13.60;99.90
16781;DHT22;8507;50.056;8.248;2023-03-23T05:07:14;13.60;99.90
16781;DHT22;8507;50.056;8.248;2023-03-23T05:09:40;13.60;99.90
16781;DHT22;8507;50.056;8.248;2023-03-23T05:12:08;13.60;99.90
16781;DHT22;8507;50.056;8.248;2023-03-23T05:14:34;13.50;99.90
16781;DHT22;8507;50.056;8.248;2023-03-23T05:16:59;13.60;99.90
16781;DHT22;8507;50.056;8.248;2023-03-23T05:19:25;13.50;99.90
16781;DHT22;8507;50.056;8.248;2023-03-23T05:21:51;13.50;99.90
16781;DHT22;8507;50.056;8.248;2023-03-23T05:24:16;13.50;99.90
16781;DHT22;8507;50.056;8.248;2023-03-23T05:26:42;13.50;99.90
16781;DHT22;8507;50.056;8.248;2023-03-23T05:29:09;13.50;99.90
16781;DHT22;8507;50.056;8.248;2023-03-23T05:31:36;13.50;99.90
16781;DHT22;8507;50.056;8.248;2023-03-23T05:34:02;13.50;99.90
16781;DHT22;8507;50.056;8.248;2023-03-23T05:36:28;13.40;99.90
16781;DHT22;8507;50.056;8.248;2023-03-23T05:38:54;13.40;99.90
16781;DHT22;8507;50.056;8.248;2023-03-23T05:41:20;13.40;99.90
16781;DHT22;8507;50.056;8.248;2023-03-23T05:43:46;13.40;99.90
16781;DHT22;8507;50.056;8.248;2023-03-23T05:46:11;13.40;99.90
16781;DHT22;8507;50.056;8.248;2023-03-23T05:48:37;13.40;99.90
16781;DHT22;8507;50.056;8.248;2023-03-23T05:51:03;13.30;99.90
16781;DHT22;8507;50.056;8.248;2023-03-23T05:53:29;13.30;99.90
16781;DHT22;8507;50.056;8.248;2023-03-23T05:56:00;13.30;99.90
16781;DHT22;8507;50.056;8.248;2023-03-23T05:58:26;13.30;99.90
16781;DHT22;8507;50.056;8.248;2023-03-23T06:00:51;13.20;99.90
16781;DHT22;8507;50.056;8.248;2023-03-23T06:03:17;13.20;99.90
16781;DHT22;8507;50.056;8.248;2023-03-23T06:05:44;13.30;99.90
16781;DHT22;8507;50.056;8.248;2023-03-23T06:08:10;13.20;99.90
16781;DHT22;8507;50.056;8.248;2023-03-23T06:10:37;13.30;99.90
16781;DHT22;8507;50.056;8.248;2023-03-23T06:13:03;13.30;99.90
16781;DHT22;8507;50.056;8.248;2023-03-23T06:15:29;13.30;99.90
16781;DHT22;8507;50.056;8.248;2023-03-23T06:18:01;13.20;99.90
16781;DHT22;8507;50.056;8.248;2023-03-23T06:20:26;13.20;99.90
16781;DHT22;8507;50.056;8.248;2023-03-23T06:22:52;13.30;99.90
16781;DHT22;8507;50.056;8.248;2023-03-23T06:25:18;13.30;99.90
16781;DHT22;8507;50.056;8.248;2023-03-23T06:27:44;13.30;99.90
16781;DHT22;8507;50.056;8.248;2023-03-23T06:30:13;13.30;99.90
16781;DHT22;8507;50.056;8.248;2023-03-23T06:32:41;13.30;99.90
16781;DHT22;8507;50.056;8.248;2023-03-23T06:35:07;13.30;99.90
16781;DHT22;8507;50.056;8.248;2023-03-23T06:37:35;13.30;99.90
16781;DHT22;8507;50.056;8.248;2023-03-23T06:40:01;13.30;99.90
16781;DHT22;8507;50.056;8.248;2023-03-23T06:42:29;13.30;99.90
16781;DHT22;8507;50.056;8.248;2023-03-23T06:44:55;13.40;99.90
16781;DHT22;8507;50.056;8.248;2023-03-23T06:47:23;13.30;99.90
16781;DHT22;8507;50.056;8.248;2023-03-23T06:49:48;13.40;99.90
16781;DHT22;8507;50.056;8.248;2023-03-23T06:52:14;13.50;99.90
16781;DHT22;8507;50.056;8.248;2023-03-23T06:54:39;13.50;99.90
16781;DHT22;8507;50.056;8.248;2023-03-23T06:57:05;13.50;99.90
16781;DHT22;8507;50.056;8.248;2023-03-23T06:59:31;13.50;99.90
16781;DHT22;8507;50.056;8.248;2023-03-23T07:01:56;13.50;99.90
16781;DHT22;8507;50.056;8.248;2023-03-23T07:04:22;13.40;99.90
16781;DHT22;8507;50.056;8.248;2023-03-23T07:06:49;13.50;99.90
16781;DHT22;8507;50.056;8.248;2023-03-23T07:09:14;13.50;99.90
16781;DHT22;8507;50.056;8.248;2023-03-23T07:11:40;13.50;99.90
16781;DHT22;8507;50.056;8.248;2023-03-23T07:14:06;13.40;99.90
16781;DHT22;8507;50.056;8.248;2023-03-23T07:16:32;13.40;99.90
16781;DHT22;8507;50.056;8.248;2023-03-23T07:18:58;13.40;99.90
16781;DHT22;8507;50.056;8.248;2023-03-23T07:21:24;13.40;99.90
16781;DHT22;8507;50.056;8.248;2023-03-23T07:23:50;13.40;99.90
16781;DHT22;8507;50.056;8.248;2023-03-23T07:26:15;13.40;99.90
16781;DHT22;8507;50.056;8.248;2023-03-23T07:28:42;13.40;99.90
16781;DHT22;8507;50.056;8.248;2023-03-23T07:31:07;13.50;99.90
16781;DHT22;8507;50.056;8.248;2023-03-23T07:33:34;13.40;99.90
16781;DHT22;8507;50.056;8.248;2023-03-23T07:36:01;13.50;99.90
16781;DHT22;8507;50.056;8.248;2023-03-23T07:38:28;13.50;99.90
16781;DHT22;8507;50.056;8.248;2023-03-23T07:40:54;13.60;99.90
16781;DHT22;8507;50.056;8.248;2023-03-23T07:43:19;13.60;99.90
16781;DHT22;8507;50.056;8.248;2023-03-23T07:45:46;13.70;99.90
16781;DHT22;8507;50.056;8.248;2023-03-23T07:48:12;13.70;99.90
16781;DHT22;8507;50.056;8.248;2023-03-23T07:50:38;13.70;99.90
16781;DHT22;8507;50.056;8.248;2023-03-23T07:53:04;13.80;99.90
16781;DHT22;8507;50.056;8.248;2023-03-23T07:55:30;13.80;99.90
16781;DHT22;8507;50.056;8.248;2023-03-23T07:57:55;13.80;99.90
16781;DHT22;8507;50.056;8.248;2023-03-23T08:00:22;13.80;99.90
16781;DHT22;8507;50.056;8.248;2023-03-23T08:02:52;13.80;99.90
16781;DHT22;8507;50.056;8.248;2023-03-23T08:05:18;13.80;99.90
16781;DHT22;8507;50.056;8.248;2023-03-23T08:07:44;13.80;99.90
16781;DHT22;8507;50.056;8.248;2023-03-23T08:10:11;13.90;99.90
16781;DHT22;8507;50.056;8.248;2023-03-23T08:12:38;13.90;99.90
16781;DHT22;8507;50.056;8.248;2023-03-23T08:15:05;14.00;99.90
16781;DHT22;8507;50.056;8.248;2023-03-23T08:17:32;14.00;99.90
16781;DHT22;8507;50.056;8.248;2023-03-23T08:19:58;14.00;99.90
16781;DHT22;8507;50.056;8.248;2023-03-23T08:22:23;14.10;99.90
16781;DHT22;8507;50.056;8.248;2023-03-23T08:24:50;14.10;99.90
16781;DHT22;8507;50.056;8.248;2023-03-23T08:27:15;14.20;99.90
16781;DHT22;8507;50.056;8.248;2023-03-23T08:29:43;14.20;99.90
16781;DHT22;8507;50.056;8.248;2023-03-23T08:32:09;14.20;99.90
16781;DHT22;8507;50.056;8.248;2023-03-23T08:34:35;14.20;99.90
16781;DHT22;8507;50.056;8.248;2023-03-23T08:37:00;14.30;99.90
16781;DHT22;8507;50.056;8.248;2023-03-23T08:39:26;14.50;99.90
16781;DHT22;8507;50.056;8.248;2023-03-23T08:41:51;14.70;99.90
16781;DHT22;8507;50.056;8.248;2023-03-23T08:44:16;14.90;99.90
16781;DHT22;8507;50.056;8.248;2023-03-23T08:46:42;15.10;99.90
16781;DHT22;8507;50.056;8.248;2023-03-23T08:49:08;15.30;99.90
16781;DHT22;8507;50.056;8.248;2023-03-23T08:51:33;15.50;99.90
16781;DHT22;8507;50.056;8.248;2023-03-23T08:53:59;15.60;99.90
16781;DHT22;8507;50.056;8.248;2023-03-23T08:56:25;15.50;99.90
16781;DHT22;8507;50.056;8.248;2023-03-23T08:58:51;15.60;99.90
16781;DHT22;8507;50.056;8.248;2023-03-23T09:01:16;15.60;99.90
16781;DHT22;8507;50.056;8.248;2023-03-23T09:03:42;15.60;99.90
16781;DHT22;8507;50.056;8.248;2023-03-23T09:06:09;15.70;99.90
16781;DHT22;8507;50.056;8.248;2023-03-23T09:08:36;15.60;99.90
16781;DHT22;8507;50.056;8.248;2023-03-23T09:11:04;15.60;99.90
16781;DHT22;8507;50.056;8.248;2023-03-23T09:13:30;15.80;99.90
16781;DHT22;8507;50.056;8.248;2023-03-23T09:15:56;15.90;99.90
16781;DHT22;8507;50.056;8.248;2023-03-23T09:18:23;16.10;99.90
16781;DHT22;8507;50.056;8.248;2023-03-23T09:20:53;16.30;99.90
16781;DHT22;8507;50.056;8.248;2023-03-23T09:23:19;16.30;99.90
16781;DHT22;8507;50.056;8.248;2023-03-23T09:25:46;16.40;99.90
16781;DHT22;8507;50.056;8.248;2023-03-23T09:28:12;16.30;99.90
16781;DHT22;8507;50.056;8.248;2023-03-23T09:30:39;16.20;99.90
16781;DHT22;8507;50.056;8.248;2023-03-23T09:33:06;16.30;99.90
16781;DHT22;8507;50.056;8.248;2023-03-23T09:35:34;16.20;99.90
16781;DHT22;8507;50.056;8.248;2023-03-23T09:38:01;16.20;99.90
16781;DHT22;8507;50.056;8.248;2023-03-23T09:40:54;16.20;99.90
16781;DHT22;8507;50.056;8.248;2023-03-23T09:43:38;16.30;99.90
16781;DHT22;8507;50.056;8.248;2023-03-23T09:46:58;16.00;99.90
16781;DHT22;8507;50.056;8.248;2023-03-23T09:49:11;15.90;99.90
16781;DHT22;8507;50.056;8.248;2023-03-23T09:51:57;15.80;99.90
16781;DHT22;8507;50.056;8.248;2023-03-23T09:56:54;15.50;99.90
16781;DHT22;8507;50.056;8.248;2023-03-23T09:59:41;15.70;99.90
16781;DHT22;8507;50.056;8.248;2023-03-23T10:02:12;15.50;99.90
16781;DHT22;8507;50.056;8.248;2023-03-23T10:04:51;15.50;99.90
16781;DHT22;8507;50.056;8.248;2023-03-23T10:07:20;15.50;99.90
16781;DHT22;8507;50.056;8.248;2023-03-23T10:09:51;15.50;99.90
16781;DHT22;8507;50.056;8.248;2023-03-23T10:12:42;15.60;99.90
16781;DHT22;8507;50.056;8.248;2023-03-23T10:17:50;15.60;99.90
16781;DHT22;8507;50.056;8.248;2023-03-23T10:28:48;15.80;99.90
16781;DHT22;8507;50.056;8.248;2023-03-23T10:31:23;15.80;99.90
16781;DHT22;8507;50.056;8.248;2023-03-23T10:33:51;16.00;99.90
16781;DHT22;8507;50.056;8.248;2023-03-23T10:36:38;15.90;99.90
16781;DHT22;8507;50.056;8.248;2023-03-23T10:39:13;15.80;99.90
16781;DHT22;8507;50.056;8.248;2023-03-23T10:41:40;15.70;99.90
16781;DHT22;8507;50.056;8.248;2023-03-23T10:44:21;15.50;99.90
16781;DHT22;8507;50.056;8.248;2023-03-23T10:46:56;15.50;99.90
16781;DHT22;8507;50.056;8.248;2023-03-23T10:49:46;15.30;99.90
16781;DHT22;8507;50.056;8.248;2023-03-23T10:52:36;15.30;99.90
16781;DHT22;8507;50.056;8.248;2023-03-23T10:55:04;15.30;99.90
16781;DHT22;8507;50.056;8.248;2023-03-23T10:57:31;15.40;99.90
16781;DHT22;8507;50.056;8.248;2023-03-23T11:00:07;15.50;99.90
16781;DHT22;8507;50.056;8.248;2023-03-23T11:03:02;15.40;99.90
16781;DHT22;8507;50.056;8.248;2023-03-23T11:05:50;15.70;99.90
16781;DHT22;8507;50.056;8.248;2023-03-23T11:08:46;15.90;99.90
16781;DHT22;8507;50.056;8.248;2023-03-23T11:11:26;16.20;99.90
16781;DHT22;8507;50.056;8.248;2023-03-23T11:14:01;16.40;99.90
16781;DHT22;8507;50.056;8.248;2023-03-23T11:16:29;16.50;99.90
16781;DHT22;8507;50.056;8.248;2023-03-23T11:18:58;16.40;99.90
16781;DHT22;8507;50.056;8.248;2023-03-23T11:21:24;16.60;99.90
16781;DHT22;8507;50.056;8.248;2023-03-23T11:23:55;16.70;99.90
16781;DHT22;8507;50.056;8.248;2023-03-23T11:26:29;16.60;99.90
16781;DHT22;8507;50.056;8.248;2023-03-23T11:31:43;16.50;99.90
16781;DHT22;8507;50.056;8.248;2023-03-23T11:34:14;16.40;99.90
16781;DHT22;8507;50.056;8.248;2023-03-23T11:36:47;16.30;99.90
16781;DHT22;8507;50.056;8.248;2023-03-23T11:39:31;16.30;99.90
16781;DHT22;8507;50.056;8.248;2023-03-23T11:42:02;16.20;99.90
16781;DHT22;8507;50.056;8.248;2023-03-23T11:44:41;16.20;99.90
16781;DHT22;8507;50.056;8.248;2023-03-23T11:50:02;16.00;99.90
16781;DHT22;8507;50.056;8.248;2023-03-23T11:52:41;15.90;99.90
16781;DHT22;8507;50.056;8.248;2023-03-23T11:55:19;15.80;99.90
16781;DHT22;8507;50.056;8.248;2023-03-23T11:57:46;15.60;99.90
16781;DHT22;8507;50.056;8.248;2023-03-23T12:00:17;15.50;99.90
16781;DHT22;8507;50.056;8.248;2023-03-23T12:16:52;15.90;99.90
16781;DHT22;8507;50.056;8.248;2023-03-23T12:29:56;16.90;99.90
16781;DHT22;8507;50.056;8.248;2023-03-23T12:32:26;17.00;99.90
16781;DHT22;8507;50.056;8.248;2023-03-23T12:41:03;16.60;99.90
16781;DHT22;8507;50.056;8.248;2023-03-23T12:43:42;16.50;99.90
16781;DHT22;8507;50.056;8.248;2023-03-23T12:51:47;16.30;99.90
16781;DHT22;8507;50.056;8.248;2023-03-23T12:54:29;16.60;99.90
16781;DHT22;8507;50.056;8.248;2023-03-23T12:57:31;16.80;99.90
16781;DHT22;8507;50.056;8.248;2023-03-23T13:00:14;17.00;99.90
16781;DHT22;8507;50.056;8.248;2023-03-23T13:03:14;17.00;99.90
16781;DHT22;8507;50.056;8.248;2023-03-23T13:05:49;17.00;99.90
16781;DHT22;8507;50.056;8.248;2023-03-23T13:08:28;17.20;99.90
16781;DHT22;8507;50.056;8.248;2023-03-23T13:10:59;17.20;99.90
16781;DHT22;8507;50.056;8.248;2023-03-23T13:13:40;17.20;99.90
16781;DHT22;8507;50.056;8.248;2023-03-23T13:16:30;17.10;99.90
16781;DHT22;8507;50.056;8.248;2023-03-23T13:19:06;17.30;99.90
16781;DHT22;8507;50.056;8.248;2023-03-23T13:21:52;17.40;99.90
16781;DHT22;8507;50.056;8.248;2023-03-23T13:24:24;17.60;99.90
16781;DHT22;8507;50.056;8.248;2023-03-23T13:26:51;17.40;99.90
16781;DHT22;8507;50.056;8.248;2023-03-23T13:29:21;17.40;99.90
16781;DHT22;8507;50.056;8.248;2023-03-23T13:32:03;17.20;99.90
16781;DHT22;8507;50.056;8.248;2023-03-23T13:34:31;17.10;99.90
16781;DHT22;8507;50.056;8.248;2023-03-23T13:37:24;17.00;99.90
16781;DHT22;8507;50.056;8.248;2023-03-23T13:40:13;16.90;99.90
16781;DHT22;8507;50.056;8.248;2023-03-23T13:42:58;16.80;99.90
16781;DHT22;8507;50.056;8.248;2023-03-23T13:48:19;16.40;99.90
16781;DHT22;8507;50.056;8.248;2023-03-23T13:50:58;16.40;99.90
16781;DHT22;8507;50.056;8.248;2023-03-23T13:53:43;16.30;99.90
16781;DHT22;8507;50.056;8.248;2023-03-23T13:56:21;16.10;99.90
16781;DHT22;8507;50.056;8.248;2023-03-23T13:58:50;16.20;99.90
16781;DHT22;8507;50.056;8.248;2023-03-23T14:01:32;16.10;99.90
16781;DHT22;8507;50.056;8.248;2023-03-23T14:03:59;16.10;99.90
16781;DHT22;8507;50.056;8.248;2023-03-23T14:06:26;16.10;99.90
16781;DHT22;8507;50.056;8.248;2023-03-23T14:09:10;16.10;99.90
16781;DHT22;8507;50.056;8.248;2023-03-23T14:11:47;16.10;99.90
16781;DHT22;8507;50.056;8.248;2023-03-23T14:14:20;15.90;99.90
16781;DHT22;8507;50.056;8.248;2023-03-23T14:16:51;15.80;99.90
16781;DHT22;8507;50.056;8.248;2023-03-23T14:19:27;15.90;99.90
16781;DHT22;8507;50.056;8.248;2023-03-23T14:21:59;15.90;99.90
16781;DHT22;8507;50.056;8.248;2023-03-23T14:24:27;15.80;99.90
16781;DHT22;8507;50.056;8.248;2023-03-23T14:29:33;15.70;99.90
16781;DHT22;8507;50.056;8.248;2023-03-23T14:31:59;15.70;99.90
16781;DHT22;8507;50.056;8.248;2023-03-23T14:34:27;15.70;99.90
16781;DHT22;8507;50.056;8.248;2023-03-23T14:36:54;15.80;99.90
16781;DHT22;8507;50.056;8.248;2023-03-23T14:39:31;15.80;99.90
16781;DHT22;8507;50.056;8.248;2023-03-23T14:42:03;15.90;99.90
16781;DHT22;8507;50.056;8.248;2023-03-23T14:44:34;15.80;99.90
16781;DHT22;8507;50.056;8.248;2023-03-23T14:47:04;15.80;99.90
16781;DHT22;8507;50.056;8.248;2023-03-23T14:49:34;15.90;99.90
16781;DHT22;8507;50.056;8.248;2023-03-23T14:52:08;16.00;99.90
16781;DHT22;8507;50.056;8.248;2023-03-23T14:54:34;16.10;99.90
16781;DHT22;8507;50.056;8.248;2023-03-23T14:57:14;16.00;99.90
16781;DHT22;8507;50.056;8.248;2023-03-23T14:59:45;16.10;99.90
16781;DHT22;8507;50.056;8.248;2023-03-23T15:02:25;16.10;99.90
16781;DHT22;8507;50.056;8.248;2023-03-23T15:04:56;16.00;99.90
16781;DHT22;8507;50.056;8.248;2023-03-23T15:07:29;16.00;99.90
16781;DHT22;8507;50.056;8.248;2023-03-23T15:09:56;16.20;99.90
16781;DHT22;8507;50.056;8.248;2023-03-23T15:12:24;16.20;99.90
16781;DHT22;8507;50.056;8.248;2023-03-23T15:14:54;16.30;99.90
16781;DHT22;8507;50.056;8.248;2023-03-23T15:17:30;16.20;99.90
16781;DHT22;8507;50.056;8.248;2023-03-23T15:19:56;16.10;99.90
16781;DHT22;8507;50.056;8.248;2023-03-23T15:22:28;16.10;99.90
16781;DHT22;8507;50.056;8.248;2023-03-23T15:25:17;16.10;99.90
16781;DHT22;8507;50.056;8.248;2023-03-23T15:27:48;16.10;99.90
16781;DHT22;8507;50.056;8.248;2023-03-23T15:33:04;16.00;99.90
16781;DHT22;8507;50.056;8.248;2023-03-23T15:35:35;16.10;99.90
16781;DHT22;8507;50.056;8.248;2023-03-23T15:38:04;15.90;99.90
16781;DHT22;8507;50.056;8.248;2023-03-23T15:40:35;16.00;99.90
16781;DHT22;8507;50.056;8.248;2023-03-23T15:43:24;16.00;99.90
16781;DHT22;8507;50.056;8.248;2023-03-23T15:48:26;15.90;99.90
16781;DHT22;8507;50.056;8.248;2023-03-23T15:50:52;15.90;99.90
16781;DHT22;8507;50.056;8.248;2023-03-23T15:53:30;15.90;99.90
16781;DHT22;8507;50.056;8.248;2023-03-23T15:55:59;15.90;99.90
16781;DHT22;8507;50.056;8.248;2023-03-23T15:58:26;15.80;99.90
16781;DHT22;8507;50.056;8.248;2023-03-23T16:00:51;15.90;99.90
16781;DHT22;8507;50.056;8.248;2023-03-23T16:03:29;15.80;99.90
16781;DHT22;8507;50.056;8.248;2023-03-23T16:05:57;15.80;99.90
16781;DHT22;8507;50.056;8.248;2023-03-23T16:08:25;15.70;99.90
16781;DHT22;8507;50.056;8.248;2023-03-23T16:10:51;15.70;99.90
16781;DHT22;8507;50.056;8.248;2023-03-23T16:13:16;15.70;99.90
16781;DHT22;8507;50.056;8.248;2023-03-23T16:15:43;15.60;99.90
16781;DHT22;8507;50.056;8.248;2023-03-23T16:18:17;15.60;99.90
16781;DHT22;8507;50.056;8.248;2023-03-23T16:20:43;15.50;99.90
16781;DHT22;8507;50.056;8.248;2023-03-23T16:23:08;15.50;99.90
16781;DHT22;8507;50.056;8.248;2023-03-23T16:25:34;15.40;99.90
16781;DHT22;8507;50.056;8.248;2023-03-23T16:27:59;15.40;99.90
16781;DHT22;8507;50.056;8.248;2023-03-23T16:30:27;15.40;99.90
16781;DHT22;8507;50.056;8.248;2023-03-23T16:32:53;15.30;99.90
16781;DHT22;8507;50.056;8.248;2023-03-23T16:35:20;15.20;99.90
16781;DHT22;8507;50.056;8.248;2023-03-23T16:37:48;15.20;99.90
16781;DHT22;8507;50.056;8.248;2023-03-23T16:40:15;15.20;99.90
16781;DHT22;8507;50.056;8.248;2023-03-23T16:42:42;15.10;99.90
16781;DHT22;8507;50.056;8.248;2023-03-23T16:45:08;15.10;99.90
16781;DHT22;8507;50.056;8.248;2023-03-23T16:47:34;15.00;99.90
16781;DHT22;8507;50.056;8.248;2023-03-23T16:50:00;15.00;99.90
16781;DHT22;8507;50.056;8.248;2023-03-23T16:52:26;15.00;99.90
16781;DHT22;8507;50.056;8.248;2023-03-23T16:54:51;14.90;99.90
16781;DHT22;8507;50.056;8.248;2023-03-23T16:57:17;14.80;99.90
16781;DHT22;8507;50.056;8.248;2023-03-23T16:59:43;14.80;99.90
16781;DHT22;8507;50.056;8.248;2023-03-23T17:02:11;14.70;99.90
16781;DHT22;8507;50.056;8.248;2023-03-23T17:04:42;14.70;99.90
16781;DHT22;8507;50.056;8.248;2023-03-23T17:07:08;14.70;99.90
16781;DHT22;8507;50.056;8.248;2023-03-23T17:09:33;14.70;99.90
16781;DHT22;8507;50.056;8.248;2023-03-23T17:11:59;14.70;99.90
16781;DHT22;8507;50.056;8.248;2023-03-23T17:14:25;14.70;99.90
16781;DHT22;8507;50.056;8.248;2023-03-23T17:16:50;14.60;99.90
16781;DHT22;8507;50.056;8.248;2023-03-23T17:19:16;14.60;99.90
16781;DHT22;8507;50.056;8.248;2023-03-23T17:21:41;14.60;99.90
16781;DHT22;8507;50.056;8.248;2023-03-23T17:24:08;14.60;99.90
16781;DHT22;8507;50.056;8.248;2023-03-23T17:26:34;14.50;99.90